Time,TemperatureF,DewpointF,PressureIn,WindDirection,WindDirectionDegrees,WindSpeedMPH,WindSpeedGustMPH,Humidity,HourlyPrecipIn,Conditions,Clouds,dailyrainin,SoftwareType,DateUTC
2013-03-05 00:01:00,38.8,19.8,29.99,North,0,0.0,0.0,46,0.00,,CLR,0.00,VWS V14.00,2013-03-05 05:01:00,
2013-03-05 00:16:00,38.8,20.3,29.99,North,0,1.0,1.0,47,0.00,,BKN120,0.00,VWS V14.00,2013-03-05 05:16:00,
2013-03-05 00:31:00,39.5,18.9,29.98,North,0,0.0,1.0,43,0.00,,BKN120,0.00,VWS V14.00,2013-03-05 05:31:00,
2013-03-05 00:46:00,38.9,19.4,29.99,North,0,0.0,0.0,45,0.00,,BKN120,0.00,VWS V14.00,2013-03-05 05:46:00,
2013-03-05 01:01:00,38.5,21.0,29.99,North,0,0.0,0.0,49,0.00,,BKN120,0.00,VWS V14.00,2013-03-05 06:01:00,
2013-03-05 01:16:00,38.2,20.2,29.99,North,0,0.0,1.0,48,0.00,,BKN120,0.00,VWS V14.00,2013-03-05 06:16:00,
2013-03-05 01:31:00,38.0,20.1,29.99,North,0,0.0,0.0,48,0.00,,BKN120,0.00,VWS V14.00,2013-03-05 06:31:00,
2013-03-05 01:46:00,38.2,19.8,29.99,North,0,0.0,1.0,47,0.00,,BKN120,0.00,VWS V14.00,2013-03-05 06:46:00,
2013-03-05 02:01:00,38.8,22.2,29.99,North,0,0.0,0.0,51,0.00,,BKN120,0.00,VWS V14.00,2013-03-05 07:01:00,
2013-03-05 02:16:00,39.1,21.1,29.99,North,0,0.0,1.0,48,0.00,,CLR,0.00,VWS V14.00,2013-03-05 07:16:00,
2013-03-05 02:31:00,39.2,23.1,29.99,North,0,0.0,0.0,52,0.00,,CLR,0.00,VWS V14.00,2013-03-05 07:31:00,
2013-03-05 02:46:00,39.2,22.6,29.99,North,0,0.0,0.0,51,0.00,,CLR,0.00,VWS V14.00,2013-03-05 07:46:00,
2013-03-05 03:01:00,39.8,20.2,29.98,North,0,0.0,1.0,45,0.00,,OVC110,0.00,VWS V14.00,2013-03-05 08:01:00,
2013-03-05 03:16:00,40.1,22.5,29.97,North,0,0.0,0.0,49,0.00,,OVC110,0.00,VWS V14.00,2013-03-05 08:16:00,
2013-03-05 03:31:00,39.8,24.1,29.97,North,0,0.0,0.0,53,0.00,,OVC110,0.00,VWS V14.00,2013-03-05 08:31:00,
2013-03-05 03:46:00,39.3,22.2,29.97,North,0,0.0,0.0,50,0.00,,OVC110,0.00,VWS V14.00,2013-03-05 08:46:00,
2013-03-05 04:01:00,39.8,21.2,29.97,North,0,0.0,1.0,47,0.00,,OVC110,0.00,VWS V14.00,2013-03-05 09:01:00,
2013-03-05 04:16:00,39.2,22.1,29.97,North,0,0.0,0.0,50,0.00,,OVC095,0.00,VWS V14.00,2013-03-05 09:16:00,
2013-03-05 04:31:00,38.6,22.5,29.97,North,0,0.0,0.0,52,0.00,,OVC095,0.00,VWS V14.00,2013-03-05 09:31:00,
2013-03-05 04:46:00,37.9,22.8,29.98,North,0,0.0,0.0,54,0.00,,OVC095,0.00,VWS V14.00,2013-03-05 09:46:00,
2013-03-05 05:01:00,37.5,24.1,29.98,North,0,0.0,0.0,58,0.00,,BKN090,0.00,VWS V14.00,2013-03-05 10:01:00,
2013-03-05 05:16:00,37.3,24.3,29.98,North,0,0.0,0.0,59,0.00,,BKN090,0.00,VWS V14.00,2013-03-05 10:16:00,
2013-03-05 05:31:00,37.0,24.4,29.98,North,0,0.0,0.0,60,0.00,,BKN090,0.00,VWS V14.00,2013-03-05 10:31:00,
2013-03-05 05:46:00,36.6,23.6,29.98,North,0,0.0,0.0,59,0.00,,BKN090,0.00,VWS V14.00,2013-03-05 10:46:00,
2013-03-05 06:01:00,36.2,24.1,29.98,North,0,0.0,0.0,61,0.00,,BKN090,0.00,VWS V14.00,2013-03-05 11:01:00,
2013-03-05 06:16:00,35.9,24.2,29.98,North,0,0.0,0.0,62,0.00,,SCT090,0.00,VWS V14.00,2013-03-05 11:16:00,
2013-03-05 06:31:00,36.2,24.1,29.97,North,0,0.0,0.0,61,0.00,,SCT090,0.00,VWS V14.00,2013-03-05 11:31:00,
2013-03-05 06:46:00,36.2,24.5,29.98,North,0,0.0,0.0,62,0.00,,SCT090,0.00,VWS V14.00,2013-03-05 11:46:00,
2013-03-05 07:01:00,36.3,24.9,29.97,North,0,0.0,0.0,63,0.00,,SCT090,0.00,VWS V14.00,2013-03-05 12:01:00,
2013-03-05 07:16:00,36.5,25.5,29.96,North,0,0.0,1.0,64,0.00,,SCT090,0.00,VWS V14.00,2013-03-05 12:16:00,
2013-03-05 07:31:00,37.3,24.3,29.96,North,0,0.0,3.0,59,0.00,,CLR,0.00,VWS V14.00,2013-03-05 12:31:00,
2013-03-05 07:46:00,38.6,23.4,29.97,North,0,0.0,1.0,54,0.00,,CLR,0.00,VWS V14.00,2013-03-05 12:46:00,
2013-03-05 08:01:00,39.6,23.4,29.97,North,0,0.0,0.0,52,0.00,,CLR,0.00,VWS V14.00,2013-03-05 13:01:00,
2013-03-05 08:16:00,40.6,23.9,29.98,North,0,0.0,1.0,51,0.00,,BKN120,0.00,VWS V14.00,2013-03-05 13:16:00,
2013-03-05 08:31:00,41.1,22.9,29.97,North,0,1.0,2.0,48,0.00,,BKN120,0.00,VWS V14.00,2013-03-05 13:31:00,
2013-03-05 08:46:00,42.8,23.5,29.97,North,0,1.0,3.0,46,0.00,,BKN120,0.00,VWS V14.00,2013-03-05 13:46:00,
2013-03-05 09:01:00,44.2,24.2,29.97,North,0,0.0,1.0,45,0.00,,SCT110,0.00,VWS V14.00,2013-03-05 14:01:00,
2013-03-05 09:16:00,44.3,23.2,29.97,NNW,329,0.0,1.0,43,0.00,,SCT110,0.00,VWS V14.00,2013-03-05 14:16:00,
2013-03-05 09:31:00,44.2,24.2,29.96,NW,323,1.0,2.0,45,0.00,,SCT110,0.00,VWS V14.00,2013-03-05 14:31:00,
2013-03-05 09:46:00,44.1,24.7,29.96,NW,315,1.0,3.0,46,0.00,,SCT110,0.00,VWS V14.00,2013-03-05 14:46:00,
2013-03-05 10:01:00,43.9,25.0,29.96,SSW,206,0.0,2.0,47,0.00,,SCT110,0.00,VWS V14.00,2013-03-05 15:01:00,
2013-03-05 10:16:00,44.1,26.2,29.95,South,186,3.0,7.0,49,0.00,,SCT055,0.00,VWS V14.00,2013-03-05 15:16:00,
2013-03-05 10:31:00,44.3,32.5,29.95,NW,312,3.0,8.0,63,0.00,,SCT055,0.00,VWS V14.00,2013-03-05 15:31:00,
2013-03-05 10:46:00,43.8,35.4,29.94,North,359,0.0,3.0,72,0.00,,SCT055,0.00,VWS V14.00,2013-03-05 15:46:00,
2013-03-05 11:01:00,43.1,36.1,29.94,North,0,0.0,1.0,76,0.00,,,0.00,VWS V14.00,2013-03-05 16:01:00,
2013-03-05 11:16:00,42.3,36.3,29.93,North,0,1.0,1.0,79,0.00,,,0.00,VWS V14.00,2013-03-05 16:16:00,
2013-03-05 11:31:00,41.6,36.2,29.92,North,359,0.0,2.0,81,0.00,,,0.00,VWS V14.00,2013-03-05 16:31:00,
2013-03-05 11:46:00,41.3,36.2,29.91,North,354,0.0,1.0,82,0.00,,,0.00,VWS V14.00,2013-03-05 16:46:00,
2013-03-05 12:01:00,41.3,36.2,29.91,North,350,0.0,2.0,82,0.01,,,0.01,VWS V14.00,2013-03-05 17:01:00,
2013-03-05 12:16:00,41.6,36.8,29.90,North,349,0.0,2.0,83,0.01,,,0.01,VWS V14.00,2013-03-05 17:16:00,
2013-03-05 12:31:00,41.9,36.8,29.89,SSW,210,0.0,4.0,82,0.01,,,0.01,VWS V14.00,2013-03-05 17:31:00,
2013-03-05 12:46:00,42.3,37.2,29.89,WSW,254,2.0,3.0,82,0.01,,,0.01,VWS V14.00,2013-03-05 17:46:00,
2013-03-05 13:01:00,42.6,36.9,29.88,West,268,0.0,3.0,80,0.01,,-RA,0.01,VWS V14.00,2013-03-05 18:01:00,
2013-03-05 13:16:00,43.1,38.0,29.87,West,268,1.0,2.0,82,0.00,,-RA,0.01,VWS V14.00,2013-03-05 18:16:00,
2013-03-05 13:31:00,43.2,37.8,29.85,WSW,243,2.0,2.0,81,0.00,,-RA,0.01,VWS V14.00,2013-03-05 18:31:00,
2013-03-05 13:46:00,43.6,38.5,29.84,SW,223,0.0,2.0,82,0.00,,-RA,0.01,VWS V14.00,2013-03-05 18:46:00,
2013-03-05 14:01:00,44.6,39.5,29.83,SSE,165,0.0,3.0,82,0.00,,-RA,0.01,VWS V14.00,2013-03-05 19:01:00,
2013-03-05 14:16:00,45.2,39.7,29.82,South,181,0.0,3.0,81,0.00,,-RA,0.01,VWS V14.00,2013-03-05 19:16:00,
2013-03-05 14:31:00,45.5,40.0,29.81,SSW,192,0.0,2.0,81,0.00,,-RA,0.01,VWS V14.00,2013-03-05 19:31:00,
2013-03-05 14:46:00,45.5,40.0,29.81,South,188,0.0,2.0,81,0.00,,-RA,0.01,VWS V14.00,2013-03-05 19:46:00,
2013-03-05 15:01:00,45.1,39.6,29.81,SSW,209,1.0,2.0,81,0.00,,,0.01,VWS V14.00,2013-03-05 20:01:00,
2013-03-05 15:16:00,44.6,39.8,29.81,NNW,336,0.0,2.0,83,0.00,,,0.01,VWS V14.00,2013-03-05 20:16:00,
2013-03-05 15:31:00,44.5,40.3,29.80,WSW,246,0.0,2.0,85,0.01,,,0.02,VWS V14.00,2013-03-05 20:31:00,
2013-03-05 15:46:00,44.3,40.4,29.81,SW,224,0.0,0.0,86,0.01,,,0.02,VWS V14.00,2013-03-05 20:46:00,
2013-03-05 16:01:00,44.2,40.6,29.80,SW,220,0.0,0.0,87,0.01,,,0.02,VWS V14.00,2013-03-05 21:01:00,
2013-03-05 16:16:00,43.9,40.6,29.80,SSW,212,0.0,1.0,88,0.02,,-RA,0.03,VWS V14.00,2013-03-05 21:16:00,
2013-03-05 16:31:00,43.9,40.9,29.79,SSW,200,0.0,1.0,89,0.02,,-RA,0.03,VWS V14.00,2013-03-05 21:31:00,
2013-03-05 16:46:00,43.8,40.8,29.77,SSW,202,0.0,0.0,89,0.01,,-RA,0.03,VWS V14.00,2013-03-05 21:46:00,
2013-03-05 17:01:00,43.8,41.1,29.77,SSW,200,0.0,0.0,90,0.02,,-RA,0.04,VWS V14.00,2013-03-05 22:01:00,
2013-03-05 17:16:00,43.6,40.9,29.76,South,169,0.0,3.0,90,0.02,,-RA,0.04,VWS V14.00,2013-03-05 22:16:00,
2013-03-05 17:31:00,43.3,40.6,29.76,South,181,0.0,2.0,90,0.01,,-RA,0.04,VWS V14.00,2013-03-05 22:31:00,
2013-03-05 17:46:00,43.2,40.8,29.75,South,178,0.0,2.0,91,0.01,,-RA,0.04,VWS V14.00,2013-03-05 22:46:00,
2013-03-05 18:01:00,42.9,40.5,29.74,South,175,1.0,3.0,91,0.01,,-RA,0.04,VWS V14.00,2013-03-05 23:01:00,
2013-03-05 18:16:00,42.8,40.6,29.72,South,169,3.0,5.0,92,0.00,,-RA,0.04,VWS V14.00,2013-03-05 23:16:00,
2013-03-05 18:31:00,42.6,40.4,29.70,SSE,160,0.0,8.0,92,0.00,,-RA,0.04,VWS V14.00,2013-03-05 23:31:00,
2013-03-05 18:46:00,42.5,40.3,29.69,East,99,1.0,6.0,92,0.00,,-RA,0.04,VWS V14.00,2013-03-05 23:46:00,
2013-03-05 19:01:00,42.3,40.2,29.66,ENE,71,2.0,9.0,92,0.00,,,0.04,VWS V14.00,2013-03-06 00:01:00,
2013-03-05 19:16:00,42.3,40.4,29.65,East,100,1.0,5.0,93,0.00,,,0.04,VWS V14.00,2013-03-06 00:16:00,
2013-03-05 19:31:00,42.3,40.4,29.64,WNW,284,4.0,6.0,93,0.00,,,0.04,VWS V14.00,2013-03-06 00:31:00,
2013-03-05 19:46:00,42.3,40.4,29.63,ESE,123,1.0,8.0,93,0.00,,,0.04,VWS V14.00,2013-03-06 00:46:00,
2013-03-05 20:01:00,42.5,40.6,29.61,East,80,3.0,7.0,93,0.00,,,0.04,VWS V14.00,2013-03-06 01:01:00,
2013-03-05 20:16:00,42.5,40.6,29.60,East,82,2.0,6.0,93,0.01,,,0.05,VWS V14.00,2013-03-06 01:16:00,
2013-03-05 20:31:00,42.5,40.6,29.59,East,82,4.0,7.0,93,0.04,,,0.08,VWS V14.00,2013-03-06 01:31:00,
2013-03-05 20:46:00,42.6,40.7,29.57,ENE,78,5.0,6.0,93,0.07,,,0.11,VWS V14.00,2013-03-06 01:46:00,
2013-03-05 21:01:00,42.8,41.2,29.56,East,85,1.0,6.0,94,0.12,,-RA,0.16,VWS V14.00,2013-03-06 02:01:00,
2013-03-05 21:16:00,43.1,41.5,29.56,East,79,1.0,14.0,94,0.25,,-RA,0.29,VWS V14.00,2013-03-06 02:16:00,
2013-03-05 21:31:00,43.1,41.5,29.60,NW,322,0.0,11.0,94,0.27,,-RA,0.32,VWS V14.00,2013-03-06 02:31:00,
2013-03-05 21:46:00,42.8,41.2,29.56,NE,51,0.0,0.0,94,0.25,,-RA,0.33,VWS V14.00,2013-03-06 02:46:00,
2013-03-05 22:01:00,42.6,41.0,29.56,NE,51,1.0,2.0,94,0.23,, +RA,0.34,VWS V14.00,2013-03-06 03:01:00,
2013-03-05 22:16:00,42.8,41.2,29.56,ENE,75,0.0,3.0,94,0.18,, +RA,0.34,VWS V14.00,2013-03-06 03:16:00,
2013-03-05 22:31:00,42.8,41.2,29.56,NNW,344,1.0,6.0,94,0.05,, +RA,0.34,VWS V14.00,2013-03-06 03:31:00,
2013-03-05 22:46:00,42.6,41.0,29.55,NNW,343,0.0,5.0,94,0.02,, +RA,0.34,VWS V14.00,2013-03-06 03:46:00,
2013-03-05 23:01:00,42.3,40.7,29.55,NNW,342,0.0,5.0,94,0.01,,OVC007,0.34,VWS V14.00,2013-03-06 04:01:00,
2013-03-05 23:16:00,42.2,40.6,29.54,NNW,328,1.0,7.0,94,0.00,,OVC007,0.34,VWS V14.00,2013-03-06 04:16:00,
2013-03-05 23:31:00,41.9,40.3,29.53,NNW,339,4.0,12.0,94,0.00,,OVC007,0.34,VWS V14.00,2013-03-06 04:31:00,
2013-03-05 23:46:00,41.6,40.0,29.52,North,356,1.0,7.0,94,0.00,,OVC007,0.34,VWS V14.00,2013-03-06 04:46:00,